Time;durP1;ratioP1;P1;durP2;ratioP2;P2;SDS_P1;SDS_P2;PMS_P1;PMS_P2;Temp;Humidity;BMP_temperature;BMP_pressure;BME280_temperature;BME280_humidity;BME280_pressure;Samples;Min_cycle;Max_cycle;Signal;HPM_P1;HPM_P2
2022/05/09 00:00:15;;;;;;;5.70;1.23;;;;;;;4.28;100.00;102027.94;5150768;27;20190;-45
2022/05/09 00:02:40;;;;;;;5.47;2.20;;;;;;;4.23;100.00;102030.06;5143798;27;20479;-43
2022/05/09 00:05:08;;;;;;;5.65;2.08;;;;;;;4.22;100.00;102025.78;5148016;27;20079;-45
2022/05/09 00:07:33;;;;;;;3.70;1.30;;;;;;;4.25;100.00;102017.66;5151101;27;20037;-45
2022/05/09 00:10:00;;;;;;;4.32;1.33;;;;;;;4.27;100.00;102015.78;5144511;27;20027;-47
2022/05/09 00:12:25;;;;;;;1.75;1.02;;;;;;;4.21;100.00;102008.31;5144613;27;20028;-43
2022/05/09 00:14:50;;;;;;;2.70;1.70;;;;;;;4.14;100.00;102007.94;5149901;27;20038;-48
2022/05/09 00:17:16;;;;;;;5.93;1.67;;;;;;;4.05;100.00;102019.09;5126753;27;20080;-43
2022/05/09 00:19:41;;;;;;;2.63;1.02;;;;;;;3.99;100.00;102015.13;5150847;27;20099;-47
2022/05/09 00:22:07;;;;;;;5.25;2.22;;;;;;;3.96;100.00;102014.53;5146554;27;20027;-44
2022/05/09 00:24:32;;;;;;;4.72;0.98;;;;;;;3.90;100.00;102016.66;5148509;27;20041;-43
2022/05/09 00:26:58;;;;;;;4.95;2.38;;;;;;;3.92;100.00;102016.53;5150115;27;20031;-43
2022/05/09 00:29:24;;;;;;;4.97;1.17;;;;;;;3.94;100.00;102028.59;5141415;27;20035;-45
2022/05/09 00:31:52;;;;;;;6.90;1.60;;;;;;;3.94;100.00;102023.34;5147507;27;20061;-44
2022/05/09 00:34:21;;;;;;;4.07;2.35;;;;;;;3.96;100.00;102022.41;5140478;27;20379;-43
2022/05/09 00:36:47;;;;;;;5.03;1.50;;;;;;;3.89;100.00;102014.94;5150135;27;20062;-44
2022/05/09 00:39:13;;;;;;;7.35;1.52;;;;;;;3.82;100.00;102013.75;5145071;27;20030;-45
2022/05/09 00:41:43;;;;;;;8.60;1.58;;;;;;;3.76;100.00;102014.16;5149442;27;20026;-45
2022/05/09 00:44:13;;;;;;;5.07;3.08;;;;;;;3.72;100.00;102012.72;5142753;27;20031;-48
2022/05/09 00:46:42;;;;;;;2.60;2.33;;;;;;;3.71;100.00;102019.72;5150521;27;20395;-48
2022/05/09 00:49:16;;;;;;;2.60;1.50;;;;;;;3.63;100.00;102021.22;5148960;27;20039;-46
2022/05/09 00:51:48;;;;;;;4.13;1.20;;;;;;;3.53;100.00;102018.41;5149103;27;20031;-50
2022/05/09 00:54:13;;;;;;;4.82;1.40;;;;;;;3.45;100.00;102016.31;5132033;27;20041;-46
2022/05/09 00:56:50;;;;;;;4.28;1.13;;;;;;;3.42;100.00;102015.69;5149568;27;20460;-46
2022/05/09 00:59:17;;;;;;;6.10;1.88;;;;;;;3.42;100.00;102011.28;5149022;27;20035;-46
2022/05/09 01:01:45;;;;;;;2.65;1.30;;;;;;;3.41;100.00;101999.13;5146322;27;20083;-47
2022/05/09 01:04:15;;;;;;;4.32;1.77;;;;;;;3.38;100.00;102001.13;5131409;27;20026;-43
2022/05/09 01:06:41;;;;;;;2.83;1.55;;;;;;;3.32;100.00;101999.75;5149102;27;20027;-48
2022/05/09 01:09:10;;;;;;;5.03;1.95;;;;;;;3.23;100.00;102001.25;5122872;27;20476;-44
2022/05/09 01:11:37;;;;;;;4.43;1.70;;;;;;;3.15;100.00;101992.22;5149495;27;20030;-45
2022/05/09 01:14:13;;;;;;;8.15;2.45;;;;;;;3.11;100.00;101985.53;5150132;27;20041;-46
2022/05/09 01:16:39;;;;;;;2.20;1.15;;;;;;;3.14;100.00;101998.41;5142553;27;20059;-45
2022/05/09 01:19:36;;;;;;;7.10;3.50;;;;;;;3.11;100.00;101994.22;5148236;27;20442;-46
2022/05/09 01:22:03;;;;;;;4.20;2.13;;;;;;;3.11;100.00;101991.59;5131396;27;20046;-47
2022/05/09 01:24:29;;;;;;;5.55;1.48;;;;;;;3.11;100.00;101986.38;5150398;27;20023;-45
2022/05/09 01:26:56;;;;;;;1.88;1.42;;;;;;;3.08;100.00;101981.34;5149880;27;20487;-44
2022/05/09 01:29:39;;;;;;;5.53;1.45;;;;;;;3.02;100.00;101982.59;5149414;27;20033;-46
2022/05/09 01:32:08;;;;;;;5.97;1.98;;;;;;;2.96;100.00;101980.38;5147392;27;20060;-45
2022/05/09 01:34:35;;;;;;;3.42;1.75;;;;;;;2.90;100.00;101979.97;5139280;27;20027;-44
2022/05/09 01:37:07;;;;;;;5.25;2.05;;;;;;;2.84;100.00;101992.56;5144843;27;20030;-44
2022/05/09 01:39:33;;;;;;;8.05;1.73;;;;;;;2.82;100.00;101993.59;5149716;27;20030;-46
2022/05/09 01:42:04;;;;;;;2.22;1.20;;;;;;;2.80;100.00;101996.31;5148279;27;20357;-44
2022/05/09 01:44:29;;;;;;;3.75;1.27;;;;;;;2.76;100.00;101996.59;5149628;27;20030;-43
2022/05/09 01:49:40;;;;;;;1.70;1.23;;;;;;;2.72;100.00;101980.28;5148628;27;20037;-49
2022/05/09 01:52:08;;;;;;;1.13;1.00;;;;;;;2.73;100.00;101976.69;5147666;27;20023;-46
2022/05/09 01:54:34;;;;;;;4.55;2.55;;;;;;;2.70;100.00;101978.69;5144297;27;20065;-45
2022/05/09 01:57:00;;;;;;;1.38;1.17;;;;;;;2.67;100.00;101981.53;5149643;27;20474;-46
2022/05/09 01:59:26;;;;;;;1.50;1.17;;;;;;;2.60;100.00;101978.47;5144826;27;20086;-45
2022/05/09 02:01:56;;;;;;;3.95;1.38;;;;;;;2.60;100.00;101973.22;5144621;27;20038;-46
2022/05/09 02:04:23;;;;;;;0.90;0.90;;;;;;;2.60;100.00;101970.59;5148235;27;20049;-46
2022/05/09 02:06:49;;;;;;;5.78;2.53;;;;;;;2.59;100.00;101969.78;5152471;27;20038;-45
2022/05/09 02:09:14;;;;;;;2.33;1.50;;;;;;;2.51;100.00;101966.00;5150594;27;20115;-48
2022/05/09 02:11:40;;;;;;;4.28;1.73;;;;;;;2.43;100.00;101976.13;5130337;27;20027;-43
2022/05/09 02:14:05;;;;;;;4.32;1.63;;;;;;;2.33;100.00;101966.28;5145626;27;20022;-43
2022/05/09 02:16:31;;;;;;;4.03;1.83;;;;;;;2.27;100.00;101966.69;5152191;27;20041;-45
2022/05/09 02:18:57;;;;;;;4.78;1.13;;;;;;;2.25;100.00;101965.13;5147606;27;20023;-43
2022/05/09 02:21:23;;;;;;;3.97;2.08;;;;;;;2.21;100.00;101959.22;5144014;27;20425;-49
2022/05/09 02:23:48;;;;;;;10.10;1.60;;;;;;;2.12;100.00;101955.44;5143757;27;20054;-47
2022/05/09 02:26:14;;;;;;;2.33;1.58;;;;;;;2.08;100.00;101953.13;5148926;27;20031;-48
2022/05/09 02:28:39;;;;;;;1.50;1.30;;;;;;;2.05;100.00;101946.31;5137867;27;20091;-43
2022/05/09 02:31:04;;;;;;;5.43;1.55;;;;;;;2.06;100.00;101944.53;5139253;27;20098;-43
2022/05/09 02:33:30;;;;;;;3.85;0.98;;;;;;;2.04;100.00;101941.16;5146957;27;20030;-46
2022/05/09 02:35:55;;;;;;;12.95;4.25;;;;;;;2.02;100.00;101940.44;5149624;27;20101;-45
2022/05/09 02:38:24;;;;;;;3.53;1.83;;;;;;;2.03;100.00;101942.09;5151943;27;20034;-45
2022/05/09 02:40:50;;;;;;;2.72;1.55;;;;;;;1.99;100.00;101945.84;5132101;27;20078;-47
2022/05/09 02:43:15;;;;;;;1.65;1.55;;;;;;;1.92;100.00;101942.81;5142274;27;20394;-48
2022/05/09 02:45:40;;;;;;;2.80;1.55;;;;;;;1.85;100.00;101934.50;5150055;27;20062;-45
2022/05/09 02:48:07;;;;;;;4.22;1.08;;;;;;;1.81;100.00;101929.56;5140933;27;20030;-45
2022/05/09 02:50:32;;;;;;;0.80;0.80;;;;;;;1.75;100.00;101928.19;5152397;27;20087;-43
2022/05/09 02:52:57;;;;;;;6.28;1.35;;;;;;;1.70;100.00;101928.50;5140790;27;20389;-44
2022/05/09 02:55:23;;;;;;;3.08;1.52;;;;;;;1.69;100.00;101931.19;5150659;27;20034;-43
2022/05/09 02:57:49;;;;;;;4.38;2.40;;;;;;;1.68;100.00;101932.16;5150290;27;20031;-46
2022/05/09 03:00:19;;;;;;;2.58;1.38;;;;;;;1.68;100.00;101937.38;5139701;27;20053;-47
2022/05/09 03:04:38;;;;;;;2.28;0.70;;;;;;;1.65;100.00;101929.72;5144212;27;20471;-45
2022/05/09 03:05:30;;;;;;;1.65;1.23;;;;;;;1.62;100.00;101928.13;5151753;27;20543;-47
2022/05/09 03:07:56;;;;;;;1.30;0.93;;;;;;;1.57;100.00;101924.97;5150693;27;20033;-48
2022/05/09 03:10:23;;;;;;;2.08;0.95;;;;;;;1.55;100.00;101920.78;5141293;27;20076;-48
2022/05/09 03:12:49;;;;;;;2.55;1.45;;;;;;;1.53;100.00;101921.72;5146960;27;20039;-46
2022/05/09 03:15:14;;;;;;;2.35;0.98;;;;;;;1.56;100.00;101928.53;5150393;27;20391;-44
2022/05/09 03:17:39;;;;;;;3.38;1.10;;;;;;;1.59;100.00;101927.50;5138927;27;20023;-47
2022/05/09 03:20:05;;;;;;;2.15;0.88;;;;;;;1.56;100.00;101917.25;5150358;27;20285;-46
2022/05/09 03:22:30;;;;;;;1.42;0.70;;;;;;;1.53;100.00;101926.13;5148138;27;20050;-46
2022/05/09 03:24:56;;;;;;;1.40;0.95;;;;;;;1.50;100.00;101929.75;5139419;27;20099;-44
2022/05/09 03:27:21;;;;;;;4.72;1.42;;;;;;;1.47;100.00;101922.13;5150932;27;20041;-44
2022/05/09 03:29:46;;;;;;;2.75;1.15;;;;;;;1.40;100.00;101920.81;5151520;27;20454;-44
2022/05/09 03:32:12;;;;;;;2.20;0.88;;;;;;;1.38;100.00;101924.47;5150896;27;20038;-47
2022/05/09 03:34:37;;;;;;;1.85;1.25;;;;;;;1.35;100.00;101922.03;5142323;27;20589;-49
2022/05/09 03:37:02;;;;;;;4.45;1.17;;;;;;;1.36;100.00;101919.31;5146163;27;20459;-47
2022/05/09 03:39:28;;;;;;;2.10;1.52;;;;;;;1.34;100.00;101915.94;5151167;27;20440;-46
2022/05/09 03:41:53;;;;;;;1.63;1.17;;;;;;;1.27;100.00;101920.75;5132478;27;20117;-45
2022/05/09 03:44:19;;;;;;;2.35;1.10;;;;;;;1.24;100.00;101914.84;5150823;27;20071;-43
2022/05/09 03:46:45;;;;;;;1.60;1.10;;;;;;;1.17;100.00;101911.78;5150852;27;20023;-46
2022/05/09 03:49:11;;;;;;;2.30;1.65;;;;;;;1.14;100.00;101908.53;5131877;27;20018;-45
2022/05/09 03:51:37;;;;;;;2.92;1.90;;;;;;;1.09;100.00;101916.66;5150479;27;20035;-46
2022/05/09 03:54:02;;;;;;;6.53;1.27;;;;;;;1.08;100.00;101913.22;5146450;27;20027;-45
2022/05/09 03:56:28;;;;;;;2.63;1.23;;;;;;;1.09;100.00;101916.66;5147092;27;20027;-45
2022/05/09 03:58:53;;;;;;;4.43;0.98;;;;;;;1.07;100.00;101908.91;5148185;27;20035;-45
2022/05/09 04:01:18;;;;;;;1.45;1.13;;;;;;;1.05;100.00;101915.16;5150512;27;20439;-47
2022/05/09 04:03:44;;;;;;;3.92;1.52;;;;;;;1.04;100.00;101909.09;5145887;27;20058;-44
2022/05/09 04:06:09;;;;;;;1.70;1.17;;;;;;;1.06;100.00;101909.00;5149406;27;20088;-46
2022/05/09 04:08:34;;;;;;;2.72;0.88;;;;;;;1.05;100.00;101902.09;5138433;27;20046;-44
2022/05/09 04:11:00;;;;;;;6.50;2.50;;;;;;;1.05;100.00;101909.94;5136428;27;20035;-45
2022/05/09 04:13:25;;;;;;;3.47;1.98;;;;;;;1.01;100.00;101898.84;5126313;27;20035;-45
2022/05/09 04:18:42;;;;;;;4.97;2.65;;;;;;;1.06;100.00;101898.56;5150632;27;20053;-46
2022/05/09 04:21:09;;;;;;;3.42;2.50;;;;;;;1.01;100.00;101885.78;5141168;27;20052;-44
2022/05/09 04:23:35;;;;;;;3.15;1.30;;;;;;;1.00;100.00;101886.69;5148533;27;20080;-47
2022/05/09 04:26:01;;;;;;;3.97;1.33;;;;;;;0.98;100.00;101888.59;5134691;27;20027;-46
2022/05/09 04:28:27;;;;;;;2.05;1.30;;;;;;;0.94;100.00;101887.09;5148489;27;20491;-45
2022/05/09 04:30:52;;;;;;;4.13;1.45;;;;;;;0.94;100.00;101894.09;5149574;27;20157;-43
2022/05/09 04:33:18;;;;;;;1.38;1.27;;;;;;;0.93;100.00;101893.25;5147843;27;20788;-46
2022/05/09 04:35:44;;;;;;;6.35;1.20;;;;;;;0.92;100.00;101891.56;5136059;27;20071;-46
2022/05/09 04:38:21;;;;;;;3.35;1.67;;;;;;;0.92;100.00;101890.72;5135441;27;20123;-45
2022/05/09 04:40:51;;;;;;;2.80;2.03;;;;;;;0.92;100.00;101888.94;5137669;27;20031;-44
2022/05/09 04:43:21;;;;;;;1.60;1.05;;;;;;;0.89;100.00;101888.31;5143449;27;20547;-47
2022/05/09 04:45:48;;;;;;;2.35;2.17;;;;;;;0.87;100.00;101884.00;5146985;27;20418;-46
2022/05/09 04:48:14;;;;;;;4.60;1.42;;;;;;;0.90;100.00;101879.53;5150355;27;20027;-48
2022/05/09 04:50:40;;;;;;;2.10;1.40;;;;;;;0.93;100.00;101880.19;5140083;27;20039;-47
2022/05/09 04:53:05;;;;;;;7.07;1.58;;;;;;;0.96;100.00;101880.00;5121592;27;20027;-48
2022/05/09 04:55:30;;;;;;;2.30;2.10;;;;;;;0.99;100.00;101881.59;5125484;28;20035;-43
2022/05/09 04:57:56;;;;;;;6.10;2.17;;;;;;;1.01;100.00;101874.50;5146094;27;20042;-49
2022/05/09 05:00:28;;;;;;;3.05;1.52;;;;;;;1.01;100.00;101871.88;5147893;27;20034;-45
2022/05/09 05:02:54;;;;;;;4.13;1.55;;;;;;;1.02;100.00;101877.00;5144178;27;20034;-46
2022/05/09 05:05:21;;;;;;;4.90;2.30;;;;;;;1.06;100.00;101881.13;5143017;27;20035;-47
2022/05/09 05:07:48;;;;;;;2.50;1.23;;;;;;;1.09;100.00;101870.47;5147829;27;20030;-45
2022/05/09 05:10:14;;;;;;;4.57;2.03;;;;;;;1.12;100.00;101871.22;5148688;27;20034;-46
2022/05/09 05:12:40;;;;;;;3.17;1.52;;;;;;;1.12;100.00;101866.00;5143475;27;20046;-49
2022/05/09 05:15:06;;;;;;;2.30;1.67;;;;;;;1.14;100.00;101867.56;5149485;27;20027;-45
2022/05/09 05:17:31;;;;;;;5.47;1.55;;;;;;;1.16;100.00;101865.72;5149381;27;20117;-45
2022/05/09 05:19:57;;;;;;;8.23;2.58;;;;;;;1.20;100.00;101859.34;5148220;27;20491;-46
2022/05/09 05:22:22;;;;;;;5.13;1.70;;;;;;;1.25;100.00;101851.22;5128144;27;20035;-46
2022/05/09 05:24:52;;;;;;;5.03;1.42;;;;;;;1.33;100.00;101850.72;5141460;27;20035;-44
2022/05/09 05:27:21;;;;;;;4.60;1.33;;;;;;;1.40;100.00;101852.03;5148356;27;20103;-43
2022/05/09 05:29:46;;;;;;;5.28;2.28;;;;;;;1.46;100.00;101844.63;5147761;27;20043;-43
2022/05/09 05:32:26;;;;;;;2.80;1.83;;;;;;;1.52;100.00;101854.69;5144275;27;20030;-50
2022/05/09 05:34:51;;;;;;;3.20;1.15;;;;;;;1.61;100.00;101849.81;5149741;27;20440;-49
2022/05/09 05:37:18;;;;;;;2.63;1.52;;;;;;;1.73;100.00;101849.00;5130399;27;20126;-47
2022/05/09 05:39:47;;;;;;;6.45;2.45;;;;;;;1.83;100.00;101855.28;5133452;27;20130;-46
2022/05/09 05:42:15;;;;;;;1.75;1.55;;;;;;;1.93;100.00;101851.13;5151722;27;20491;-46
2022/05/09 05:44:41;;;;;;;4.30;2.65;;;;;;;2.05;100.00;101861.75;5152768;27;20135;-46
2022/05/09 05:47:08;;;;;;;4.38;2.53;;;;;;;2.17;100.00;101851.31;5146570;27;20054;-45
2022/05/09 05:49:36;;;;;;;4.22;2.13;;;;;;;2.29;100.00;101840.94;5152942;27;20034;-44
2022/05/09 05:52:05;;;;;;;9.18;2.33;;;;;;;2.40;100.00;101847.13;5134045;27;20037;-47
2022/05/09 05:54:36;;;;;;;4.20;3.33;;;;;;;2.55;100.00;101853.06;5146510;27;20030;-45
2022/05/09 05:57:04;;;;;;;4.97;2.00;;;;;;;2.66;100.00;101852.38;5150085;27;20060;-45
2022/05/09 05:59:30;;;;;;;5.85;2.95;;;;;;;2.77;100.00;101844.59;5150976;27;20410;-45
2022/05/09 06:01:55;;;;;;;2.58;2.38;;;;;;;2.86;100.00;101850.13;5150291;27;20054;-47
2022/05/09 06:04:21;;;;;;;5.13;2.50;;;;;;;2.93;100.00;101841.72;5150877;27;20050;-45
2022/05/09 06:06:46;;;;;;;4.97;3.25;;;;;;;3.01;100.00;101834.16;5151078;27;20517;-49
2022/05/09 06:09:12;;;;;;;3.45;2.45;;;;;;;3.20;100.00;101838.94;5150408;27;20038;-48
2022/05/09 06:11:39;;;;;;;14.02;3.60;;;;;;;3.39;100.00;101835.84;5147483;27;20113;-46
2022/05/09 06:14:07;;;;;;;8.88;2.75;;;;;;;3.62;100.00;101836.78;5149645;27;20383;-45
2022/05/09 06:16:32;;;;;;;6.70;3.58;;;;;;;3.86;100.00;101828.03;5149504;27;20031;-47
2022/05/09 06:18:59;;;;;;;4.05;2.58;;;;;;;4.00;100.00;101834.88;5145633;27;20052;-48
2022/05/09 06:21:25;;;;;;;7.30;2.70;;;;;;;4.07;100.00;101833.47;5150506;27;20094;-49
2022/05/09 06:23:50;;;;;;;4.57;3.03;;;;;;;4.22;100.00;101824.44;5145830;27;20114;-47
2022/05/09 06:26:15;;;;;;;9.57;3.67;;;;;;;4.31;100.00;101821.13;5149275;27;20027;-43
2022/05/09 06:28:42;;;;;;;7.30;4.05;;;;;;;4.39;100.00;101815.28;5147851;27;20542;-47
2022/05/09 06:31:07;;;;;;;6.13;2.45;;;;;;;4.54;100.00;101807.97;5144515;27;20037;-43
2022/05/09 06:33:33;;;;;;;4.78;3.90;;;;;;;4.75;100.00;101810.72;5145793;27;20031;-45
2022/05/09 06:36:01;;;;;;;13.90;5.32;;;;;;;5.00;100.00;101802.56;5147759;27;20042;-44
2022/05/09 06:38:27;;;;;;;5.28;4.53;;;;;;;5.22;100.00;101808.75;5147266;27;20022;-43
2022/05/09 06:40:54;;;;;;;5.57;3.33;;;;;;;5.50;100.00;101803.88;5141442;27;20106;-47
2022/05/09 06:43:19;;;;;;;7.55;3.95;;;;;;;5.74;100.00;101801.03;5142900;27;20044;-47
2022/05/09 06:45:45;;;;;;;4.28;2.72;;;;;;;5.95;100.00;101794.00;5135621;27;20480;-47
2022/05/09 06:48:11;;;;;;;6.50;3.65;;;;;;;6.14;100.00;101792.44;5144930;27;20463;-45
2022/05/09 06:50:38;;;;;;;9.38;2.95;;;;;;;6.31;100.00;101792.69;5140189;27;20034;-45
2022/05/09 06:53:05;;;;;;;3.65;3.33;;;;;;;6.63;100.00;101794.34;5148071;27;20026;-44
2022/05/09 06:55:31;;;;;;;8.93;2.90;;;;;;;6.96;100.00;101772.09;5143033;27;20037;-46
2022/05/09 06:57:56;;;;;;;4.28;2.03;;;;;;;7.16;100.00;101767.69;5145461;27;20022;-49
2022/05/09 07:00:24;;;;;;;9.00;2.25;;;;;;;7.33;100.00;101757.44;5135298;27;20471;-46
2022/05/09 07:02:50;;;;;;;3.88;2.67;;;;;;;7.54;100.00;101746.75;5135408;27;20340;-48
2022/05/09 07:05:18;;;;;;;5.18;2.30;;;;;;;7.71;100.00;101739.91;5143926;27;20793;-47
2022/05/09 07:07:45;;;;;;;3.75;1.45;;;;;;;7.85;100.00;101742.94;5138731;27;20027;-46
2022/05/09 07:10:12;;;;;;;4.93;1.67;;;;;;;8.04;100.00;101736.78;5140096;27;20069;-47
2022/05/09 07:12:42;;;;;;;10.25;1.50;;;;;;;8.23;100.00;101730.59;5143946;27;20082;-46
2022/05/09 07:15:08;;;;;;;4.35;1.90;;;;;;;8.39;100.00;101722.09;5081625;27;20593;-45
2022/05/09 07:17:33;;;;;;;7.55;2.30;;;;;;;8.53;100.00;101723.41;5124147;27;20039;-48
2022/05/09 07:19:58;;;;;;;3.25;1.42;;;;;;;8.70;100.00;101716.50;5126014;27;20036;-44
2022/05/09 07:22:24;;;;;;;2.55;1.42;;;;;;;8.88;100.00;101711.22;5129551;27;20185;-51
2022/05/09 07:24:49;;;;;;;3.88;1.65;;;;;;;9.08;100.00;101717.19;5127006;27;20142;-48
2022/05/09 07:27:15;;;;;;;1.75;0.98;;;;;;;9.23;100.00;101709.56;5133689;27;20031;-50
2022/05/09 07:29:41;;;;;;;4.10;1.52;;;;;;;9.36;100.00;101707.38;5129361;27;20042;-48
2022/05/09 07:32:07;;;;;;;5.60;1.65;;;;;;;9.54;100.00;101697.56;5127666;27;20110;-45
2022/05/09 07:34:32;;;;;;;4.45;1.35;;;;;;;9.68;100.00;101698.84;5130419;27;20045;-48
2022/05/09 07:36:58;;;;;;;5.35;1.55;;;;;;;9.91;100.00;101685.06;5139220;27;20027;-46
2022/05/09 07:39:23;;;;;;;12.32;2.35;;;;;;;10.06;100.00;101680.84;5117314;27;20038;-48
2022/05/09 07:41:49;;;;;;;4.93;1.38;;;;;;;10.17;100.00;101677.94;5138815;27;20077;-48
2022/05/09 07:44:14;;;;;;;8.35;1.25;;;;;;;10.30;100.00;101669.56;5139141;27;20913;-46
2022/05/09 07:46:39;;;;;;;6.35;1.40;;;;;;;10.44;100.00;101673.41;5132755;27;20030;-49
2022/05/09 07:49:05;;;;;;;2.25;0.68;;;;;;;10.61;100.00;101671.63;5141152;27;20391;-45
2022/05/09 07:51:31;;;;;;;4.70;1.30;;;;;;;10.81;100.00;101682.78;5133987;27;20080;-47
2022/05/09 07:53:56;;;;;;;2.42;0.43;;;;;;;11.01;100.00;101689.44;5141350;27;20405;-48
2022/05/09 07:56:21;;;;;;;4.43;1.67;;;;;;;11.28;100.00;101688.31;5148514;27;20473;-51
2022/05/09 07:58:46;;;;;;;5.97;1.50;;;;;;;11.49;100.00;101689.63;5150741;27;20546;-46
2022/05/09 08:01:12;;;;;;;5.93;0.80;;;;;;;11.67;100.00;101692.91;5152252;27;20105;-47
2022/05/09 08:03:38;;;;;;;2.40;1.55;;;;;;;11.85;100.00;101687.41;5147684;27;20030;-45
2022/05/09 08:06:05;;;;;;;3.92;1.30;;;;;;;11.98;100.00;101684.25;5151764;27;20098;-49
2022/05/09 08:08:35;;;;;;;4.65;1.38;;;;;;;12.20;100.00;101675.50;5129066;27;20074;-45
2022/05/09 08:11:01;;;;;;;2.20;1.03;;;;;;;12.46;100.00;101676.22;5149597;27;20042;-46
2022/05/09 08:13:30;;;;;;;3.67;0.75;;;;;;;12.66;100.00;101667.63;5139674;27;20496;-48
2022/05/09 08:15:56;;;;;;;3.15;1.20;;;;;;;12.83;100.00;101668.38;5085884;27;20038;-54
2022/05/09 08:18:24;;;;;;;3.47;0.70;;;;;;;12.96;100.00;101656.28;5135312;27;20022;-51
2022/05/09 08:20:50;;;;;;;1.10;0.55;;;;;;;13.13;100.00;101664.97;5136518;27;20039;-47
2022/05/09 08:23:18;;;;;;;6.93;0.80;;;;;;;13.29;100.00;101655.06;5135903;27;20054;-51
2022/05/09 08:25:47;;;;;;;3.30;1.05;;;;;;;13.43;100.00;101641.94;5129165;27;20042;-53
2022/05/09 08:28:14;;;;;;;2.20;0.45;;;;;;;13.48;100.00;101640.38;5126486;27;20041;-45
2022/05/09 08:30:40;;;;;;;3.17;0.85;;;;;;;13.59;100.00;101633.78;5127248;27;20552;-47
2022/05/09 08:33:09;;;;;;;7.13;1.05;;;;;;;13.71;100.00;101621.66;5124328;27;20344;-48
2022/05/09 08:35:35;;;;;;;7.28;0.50;;;;;;;13.81;100.00;101620.53;5106105;27;20034;-47
2022/05/09 08:38:00;;;;;;;6.28;0.98;;;;;;;13.96;100.00;101611.53;5127559;27;20528;-50
2022/05/09 08:40:36;;;;;;;3.40;0.63;;;;;;;14.14;100.00;101619.13;5126173;27;20026;-47
2022/05/09 08:43:33;;;;;;;4.78;0.40;;;;;;;14.35;100.00;101606.84;5126246;27;20034;-46
2022/05/09 08:46:12;;;;;;;2.17;0.77;;;;;;;14.61;100.00;101615.19;5128135;27;20100;-51
2022/05/09 08:48:40;;;;;;;2.92;1.02;;;;;;;14.77;100.00;101606.09;5128942;27;20509;-52
2022/05/09 08:51:14;;;;;;;3.67;0.40;;;;;;;14.82;100.00;101608.19;5100807;27;20481;-45
2022/05/09 08:53:43;;;;;;;2.47;0.65;;;;;;;14.85;100.00;101605.13;5128207;27;20107;-50
2022/05/09 08:56:16;;;;;;;2.80;0.80;;;;;;;14.94;100.00;101595.97;5127304;27;20035;-50
2022/05/09 08:58:56;;;;;;;4.75;0.88;;;;;;;15.13;100.00;101591.00;5129802;27;20091;-51
2022/05/09 09:01:27;;;;;;;2.28;0.32;;;;;;;15.26;100.00;101594.56;5129734;27;20434;-48
2022/05/09 09:04:03;;;;;;;2.05;0.85;;;;;;;15.48;100.00;101595.31;5136248;27;20093;-53
2022/05/09 09:06:47;;;;;;;0.70;0.70;;;;;;;15.71;100.00;101578.22;5134419;27;20027;-49
2022/05/09 09:09:18;;;;;;;4.50;1.50;;;;;;;15.75;100.00;101582.16;5129092;27;20030;-53
2022/05/09 09:11:49;;;;;;;4.13;1.33;;;;;;;15.83;100.00;101581.97;5134438;27;20114;-47
2022/05/09 09:14:24;;;;;;;4.45;0.52;;;;;;;16.10;100.00;101598.13;5132908;27;20530;-50
2022/05/09 09:17:04;;;;;;;4.03;1.35;;;;;;;16.23;100.00;101586.66;5133673;27;20103;-56
2022/05/09 09:19:42;;;;;;;5.10;0.93;;;;;;;16.34;100.00;101594.94;5132030;27;20054;-47
2022/05/09 09:22:25;;;;;;;3.25;1.20;;;;;;;16.57;100.00;101594.56;5130209;27;20093;-49
2022/05/09 09:25:15;;;;;;;5.10;0.90;;;;;;;16.78;100.00;101601.63;5134944;27;20022;-45
2022/05/09 09:27:42;;;;;;;5.28;0.60;;;;;;;16.98;100.00;101606.16;5136627;27;20041;-50
2022/05/09 09:30:12;;;;;;;2.50;0.93;;;;;;;17.14;100.00;101608.44;5135769;27;20037;-45
2022/05/09 09:32:42;;;;;;;4.60;1.30;;;;;;;17.18;100.00;101598.94;5139490;27;20048;-46
2022/05/09 09:35:19;;;;;;;2.70;0.70;;;;;;;17.16;100.00;101606.34;5132621;27;20043;-51
2022/05/09 09:38:09;;;;;;;2.42;1.08;;;;;;;17.11;100.00;101598.09;5134870;27;20455;-50
2022/05/09 09:40:35;;;;;;;3.35;0.68;;;;;;;17.07;100.00;101591.53;5133746;27;20051;-55
2022/05/09 09:43:00;;;;;;;7.00;0.95;;;;;;;17.16;100.00;101576.88;5129761;27;20486;-48
2022/05/09 09:45:44;;;;;;;3.58;1.10;;;;;;;17.42;100.00;101580.53;5141389;27;20038;-49
2022/05/09 09:48:21;;;;;;;1.48;0.93;;;;;;;17.70;100.00;101576.75;5131011;27;20050;-50
2022/05/09 09:50:54;;;;;;;4.93;0.28;;;;;;;17.99;100.00;101573.59;5132368;27;20039;-50
2022/05/09 09:53:35;;;;;;;1.80;0.60;;;;;;;18.04;100.00;101567.56;5137623;27;20099;-47
2022/05/09 09:56:06;;;;;;;2.80;0.70;;;;;;;17.95;100.00;101560.81;5130425;27;20544;-48
2022/05/09 09:58:33;;;;;;;3.70;0.70;;;;;;;17.87;100.00;101564.56;5135337;27;20408;-50
2022/05/09 10:01:07;;;;;;;7.60;1.02;;;;;;;17.81;100.00;101568.06;5133135;27;20070;-48
2022/05/09 10:03:34;;;;;;;4.40;1.27;;;;;;;17.78;100.00;101558.56;5126163;27;20091;-49
2022/05/09 10:06:01;;;;;;;1.88;0.88;;;;;;;17.92;100.00;101550.50;5130942;27;20055;-49
2022/05/09 10:08:34;;;;;;;2.25;0.63;;;;;;;17.97;100.00;101540.78;5136798;27;20027;-48
2022/05/09 10:11:05;;;;;;;2.55;0.77;;;;;;;18.07;100.00;101534.94;5138584;27;20041;-51
2022/05/09 10:13:38;;;;;;;;;;;;;;;18.03;100.00;101533.72;5135475;27;20030;-47
2022/05/09 10:16:21;;;;;;;3.35;0.63;;;;;;;18.15;100.00;101525.81;5132535;27;20226;-48
2022/05/09 10:18:46;;;;;;;2.58;0.77;;;;;;;18.47;100.00;101529.31;5113485;27;20578;-46
2022/05/09 10:24:47;;;;;;;3.10;1.15;;;;;;;18.65;100.00;101533.94;5131159;27;20057;-50
2022/05/09 10:26:53;;;;;;;2.90;0.77;;;;;;;19.09;100.00;101519.50;5136363;27;20038;-46
2022/05/09 10:29:22;;;;;;;3.00;1.85;;;;;;;19.17;100.00;101516.53;5138613;27;20174;-48
2022/05/09 10:32:02;;;;;;;2.80;0.90;;;;;;;19.36;100.00;101512.00;5130602;27;20511;-50
2022/05/09 10:34:43;;;;;;;5.15;1.30;;;;;;;19.39;100.00;101511.53;5134984;27;20084;-48
2022/05/09 10:37:38;;;;;;;2.85;1.58;;;;;;;19.47;100.00;101504.22;5143089;27;20046;-47
2022/05/09 10:40:25;;;;;;;6.93;1.70;;;;;;;19.51;100.00;101497.31;5135488;27;20449;-50
2022/05/09 10:43:02;;;;;;;3.40;1.58;;;;;;;19.40;100.00;101493.53;5134093;27;20042;-49
2022/05/09 10:45:34;;;;;;;21.15;2.00;;;;;;;19.66;100.00;101486.19;5129507;27;20038;-53
2022/05/09 10:48:13;;;;;;;3.45;1.95;;;;;;;19.94;100.00;101491.81;5132614;27;20076;-50
2022/05/09 10:50:49;;;;;;;7.20;1.42;;;;;;;19.99;100.00;101483.88;5131878;27;20096;-49
2022/05/09 10:53:56;;;;;;;4.70;1.58;;;;;;;20.00;100.00;101480.13;5135675;27;20506;-49
2022/05/09 10:56:33;;;;;;;2.22;1.65;;;;;;;19.90;100.00;101479.84;5080652;28;20058;-51
2022/05/09 10:59:18;;;;;;;3.33;1.80;;;;;;;20.15;100.00;101473.50;5126589;27;20042;-58
2022/05/09 11:01:50;;;;;;;9.88;1.90;;;;;;;20.32;100.00;101470.97;5132612;27;20022;-50
2022/05/09 11:04:17;;;;;;;6.25;1.98;;;;;;;20.48;100.00;101472.97;5130987;27;20387;-48
2022/05/09 11:06:53;;;;;;;3.60;1.52;;;;;;;20.47;100.00;101468.63;5132004;27;20459;-50
2022/05/09 11:09:28;;;;;;;6.68;3.72;;;;;;;20.42;100.00;101472.03;5132452;27;20687;-52
2022/05/09 11:12:12;;;;;;;7.13;2.50;;;;;;;20.19;100.00;101461.25;5135378;27;20030;-48
2022/05/09 11:14:58;;;;;;;3.45;2.00;;;;;;;20.08;100.00;101462.00;5132747;27;20059;-53
2022/05/09 11:17:51;;;;;;;8.45;2.58;;;;;;;19.95;100.00;101452.25;5132338;27;20080;-48
2022/05/09 11:20:19;;;;;;;8.77;2.88;;;;;;;20.09;100.00;101451.03;5133819;27;20077;-54
2022/05/09 11:23:03;;;;;;;7.65;3.08;;;;;;;20.42;100.00;101447.81;5133225;27;20022;-54
2022/05/09 11:25:52;;;;;;;6.43;3.22;;;;;;;20.73;100.00;101437.78;5129525;27;20380;-52
2022/05/09 11:28:51;;;;;;;4.95;2.85;;;;;;;21.10;100.00;101442.88;5130353;27;20065;-52
2022/05/09 11:31:31;;;;;;;6.75;3.33;;;;;;;21.12;100.00;101433.50;5138954;27;20152;-49
2022/05/09 11:34:31;;;;;;;5.65;2.75;;;;;;;21.21;100.00;101425.00;5127536;27;20110;-47
2022/05/09 11:37:19;;;;;;;3.65;2.33;;;;;;;21.70;100.00;101430.84;5140753;27;20612;-51
2022/05/09 11:40:07;;;;;;;4.53;2.97;;;;;;;21.53;100.00;101426.22;5136663;27;20056;-51